createdAt,value
2018-06-20T00:01:27.092Z,20.46
2018-06-20T00:03:55.268Z,20.45
2018-06-20T00:06:23.348Z,20.45
2018-06-20T00:08:52.837Z,20.44
2018-06-20T00:11:23.122Z,20.44
2018-06-20T00:13:51.571Z,20.44
2018-06-20T00:16:19.625Z,20.42
2018-06-20T00:18:47.784Z,20.42
2018-06-20T00:21:15.837Z,20.40
2018-06-20T00:23:43.928Z,20.37
2018-06-20T00:26:12.168Z,20.36
2018-06-20T00:28:40.727Z,20.34
2018-06-20T00:31:08.907Z,20.33
2018-06-20T00:33:37.088Z,20.33
2018-06-20T00:36:05.284Z,20.31
2018-06-20T00:38:33.868Z,20.28
2018-06-20T00:41:02.064Z,20.26
2018-06-20T00:43:30.124Z,20.23
2018-06-20T00:45:58.275Z,20.23
2018-06-20T00:48:26.375Z,20.21
2018-06-20T00:50:54.664Z,20.18
2018-06-20T00:53:22.735Z,20.16
2018-06-20T00:56:02.241Z,20.15
2018-06-20T00:58:30.405Z,20.12
2018-06-20T01:00:58.458Z,20.11
2018-06-20T01:03:26.487Z,20.09
2018-06-20T01:05:54.554Z,20.07
2018-06-20T01:08:22.608Z,20.06
2018-06-20T01:10:50.947Z,20.05
2018-06-20T01:13:18.983Z,20.04
2018-06-20T01:15:47.271Z,20.02
2018-06-20T01:18:15.378Z,20.00
2018-06-20T01:20:43.436Z,19.97
2018-06-20T01:23:11.499Z,19.96
2018-06-20T01:25:39.543Z,19.93
2018-06-20T01:28:07.699Z,19.93
2018-06-20T01:30:35.751Z,19.92
2018-06-20T01:33:03.787Z,19.92
2018-06-20T01:35:31.915Z,19.91
2018-06-20T01:37:59.943Z,19.90
2018-06-20T01:40:27.969Z,19.91
2018-06-20T01:42:56.004Z,19.93
2018-06-20T01:45:24.052Z,19.93
2018-06-20T01:47:52.295Z,19.93
2018-06-20T01:50:20.683Z,19.93
2018-06-20T01:52:48.723Z,19.93
2018-06-20T01:55:16.755Z,19.93
2018-06-20T01:57:44.948Z,19.93
2018-06-20T02:00:12.988Z,19.93
2018-06-20T02:02:41.051Z,19.94
2018-06-20T02:05:09.176Z,19.95
2018-06-20T02:07:37.295Z,19.95
2018-06-20T02:10:05.364Z,19.97
2018-06-20T02:12:33.470Z,20.00
2018-06-20T02:15:01.687Z,20.01
2018-06-20T02:17:29.734Z,20.00
2018-06-20T02:19:57.860Z,20.02
2018-06-20T02:22:25.888Z,20.03
2018-06-20T02:24:53.949Z,20.04
2018-06-20T02:27:22.024Z,20.05
2018-06-20T02:29:50.064Z,20.05
2018-06-20T02:32:18.111Z,20.05
2018-06-20T02:34:46.184Z,20.05
2018-06-20T02:37:14.236Z,20.05
2018-06-20T02:39:42.352Z,20.06
2018-06-20T02:42:10.456Z,20.07
2018-06-20T02:44:38.616Z,20.08
2018-06-20T02:47:07.054Z,20.07
2018-06-20T02:49:35.275Z,20.06
2018-06-20T02:52:03.371Z,20.07
2018-06-20T02:54:31.902Z,20.06
2018-06-20T02:57:00.193Z,20.06
2018-06-20T02:59:28.292Z,20.07
2018-06-20T03:01:56.547Z,20.07
2018-06-20T03:04:24.623Z,20.07
2018-06-20T03:06:52.672Z,20.08
2018-06-20T03:09:24.899Z,20.08
2018-06-20T03:11:53.265Z,20.08
2018-06-20T03:14:21.291Z,20.09
2018-06-20T03:16:49.332Z,20.10
2018-06-20T03:19:17.541Z,20.10
2018-06-20T03:21:45.579Z,20.11
2018-06-20T03:24:13.704Z,20.10
2018-06-20T03:26:42.019Z,20.10
2018-06-20T03:29:10.177Z,20.10
2018-06-20T03:31:38.331Z,20.14
2018-06-20T03:34:06.501Z,20.15
2018-06-20T03:36:34.601Z,20.15
2018-06-20T03:39:02.751Z,20.14
2018-06-20T03:41:30.903Z,20.15
2018-06-20T03:43:59.043Z,20.14
2018-06-20T03:46:27.071Z,20.15
2018-06-20T03:48:55.112Z,20.18
2018-06-20T03:51:23.176Z,20.17
2018-06-20T03:53:51.249Z,20.18
2018-06-20T03:56:19.268Z,20.20
2018-06-20T03:58:47.355Z,20.22
2018-06-20T04:01:15.403Z,20.22
2018-06-20T04:03:43.525Z,20.22
2018-06-20T04:06:11.583Z,20.25
2018-06-20T04:08:39.604Z,20.27
2018-06-20T04:11:07.646Z,20.29
2018-06-20T04:13:35.679Z,20.32
2018-06-20T04:16:03.812Z,20.34
2018-06-20T04:18:36.904Z,20.37
2018-06-20T04:21:04.932Z,20.38
2018-06-20T04:23:33.004Z,20.42
2018-06-20T04:26:01.060Z,20.44
2018-06-20T04:28:29.088Z,20.45
2018-06-20T04:30:57.432Z,20.48
2018-06-20T04:33:25.560Z,20.52
2018-06-20T04:35:53.607Z,20.55
2018-06-20T04:38:21.652Z,20.59
2018-06-20T04:40:49.667Z,20.64
2018-06-20T04:43:17.964Z,20.67
2018-06-20T04:45:46.000Z,20.69
2018-06-20T04:48:14.036Z,20.72
2018-06-20T04:50:42.242Z,20.75
2018-06-20T04:53:10.344Z,20.78
2018-06-20T04:55:38.731Z,20.79
2018-06-20T04:58:06.853Z,20.79
2018-06-20T05:00:35.012Z,20.79
2018-06-20T05:03:03.095Z,20.80
2018-06-20T05:05:31.157Z,20.79
2018-06-20T05:07:59.237Z,20.78
2018-06-20T05:10:27.703Z,20.77
2018-06-20T05:12:55.779Z,20.76
2018-06-20T05:15:23.826Z,20.75
2018-06-20T05:17:51.888Z,20.73
2018-06-20T05:20:19.921Z,20.72
2018-06-20T05:22:47.963Z,20.70
2018-06-20T05:25:16.303Z,20.71
2018-06-20T05:27:44.327Z,20.70
2018-06-20T05:30:12.352Z,20.73
2018-06-20T05:32:40.395Z,20.77
2018-06-20T05:35:08.448Z,20.80
2018-06-20T05:37:36.479Z,20.87
2018-06-20T05:40:04.991Z,20.93
2018-06-20T05:42:33.260Z,21.01
2018-06-20T05:45:01.508Z,21.10
2018-06-20T05:47:29.651Z,21.20
2018-06-20T05:49:57.719Z,21.28
2018-06-20T05:52:25.835Z,21.38
2018-06-20T05:54:53.892Z,21.50
2018-06-20T05:57:21.968Z,21.60
2018-06-20T05:59:50.040Z,21.66
2018-06-20T06:02:18.094Z,21.75
2018-06-20T06:04:46.154Z,21.88
2018-06-20T06:07:14.181Z,21.98
2018-06-20T06:09:42.217Z,22.09
2018-06-20T06:12:10.256Z,22.15
2018-06-20T06:14:38.276Z,22.24
2018-06-20T06:17:06.419Z,22.33
2018-06-20T06:19:34.450Z,22.40
2018-06-20T06:22:02.483Z,22.44
2018-06-20T06:24:30.553Z,22.49
2018-06-20T06:26:58.598Z,22.59
2018-06-20T06:29:26.703Z,22.69
2018-06-20T06:31:54.896Z,22.79
2018-06-20T06:34:22.952Z,22.88
2018-06-20T06:36:51.001Z,22.95
2018-06-20T06:39:19.040Z,23.03
2018-06-20T06:41:47.101Z,23.06
2018-06-20T06:44:15.152Z,23.11
2018-06-20T06:46:43.220Z,23.13
2018-06-20T06:49:11.335Z,23.09
2018-06-20T06:51:39.674Z,23.09
2018-06-20T06:54:07.889Z,23.12
2018-06-20T06:56:36.026Z,23.09
2018-06-20T06:59:04.264Z,23.11
2018-06-20T07:01:32.508Z,23.16
2018-06-20T07:04:00.637Z,23.25
2018-06-20T07:06:28.955Z,23.29
2018-06-20T07:08:57.112Z,23.30
2018-06-20T07:11:25.354Z,23.33
2018-06-20T07:13:53.412Z,23.33
2018-06-20T07:16:21.464Z,23.30
2018-06-20T07:18:49.508Z,23.28
2018-06-20T07:21:17.537Z,23.28
2018-06-20T07:23:45.580Z,23.36
2018-06-20T07:26:13.628Z,23.42
2018-06-20T07:28:41.867Z,23.46
2018-06-20T07:31:09.948Z,23.49
2018-06-20T07:33:37.975Z,23.52
2018-06-20T07:36:06.158Z,23.58
2018-06-20T07:38:34.116Z,23.58
2018-06-20T07:41:02.178Z,23.62
2018-06-20T07:43:30.226Z,23.68
2018-06-20T07:45:58.263Z,23.75
2018-06-20T07:48:26.331Z,23.83
2018-06-20T07:50:54.359Z,23.88
2018-06-20T07:53:22.399Z,23.99
2018-06-20T07:55:50.440Z,24.01
2018-06-20T07:58:23.764Z,24.15
2018-06-20T08:00:57.191Z,24.22
2018-06-20T08:03:30.584Z,24.30
2018-06-20T08:06:04.051Z,24.41
2018-06-20T08:08:37.384Z,24.47
2018-06-20T08:11:10.788Z,24.52
2018-06-20T08:13:44.165Z,24.60
2018-06-20T08:16:17.549Z,24.70
2018-06-20T08:18:51.030Z,24.82
2018-06-20T08:21:19.144Z,24.90
2018-06-20T08:23:47.158Z,24.98
2018-06-20T08:26:15.241Z,25.11
2018-06-20T08:28:43.288Z,25.24
2018-06-20T08:31:11.361Z,25.36
2018-06-20T08:33:39.448Z,25.48
2018-06-20T08:36:07.564Z,25.60
2018-06-20T08:38:35.596Z,25.76
2018-06-20T08:41:03.660Z,25.85
2018-06-20T08:43:31.676Z,25.97
2018-06-20T08:45:59.775Z,26.12
2018-06-20T08:48:27.839Z,26.29
2018-06-20T08:50:55.869Z,26.52
2018-06-20T08:53:23.895Z,26.64
2018-06-20T08:55:51.940Z,26.82
2018-06-20T08:58:20.056Z,27.04
2018-06-20T09:00:53.710Z,27.16
2018-06-20T09:03:22.823Z,27.25
2018-06-20T09:05:56.461Z,27.27
2018-06-20T09:08:29.897Z,27.49
2018-06-20T09:11:03.432Z,27.59
2018-06-20T09:13:36.762Z,27.79
2018-06-20T09:16:10.231Z,27.89
2018-06-20T09:18:43.767Z,27.94
2018-06-20T09:21:11.819Z,28.04
2018-06-20T09:23:39.863Z,28.05
2018-06-20T09:26:07.896Z,28.01
2018-06-20T09:28:35.947Z,27.80
2018-06-20T09:31:03.992Z,27.79
2018-06-20T09:33:32.044Z,27.68
2018-06-20T09:36:00.089Z,27.53
2018-06-20T09:38:28.139Z,27.41
2018-06-20T09:40:56.197Z,27.32
2018-06-20T09:43:24.243Z,27.16
2018-06-20T09:45:52.281Z,27.03
2018-06-20T09:48:20.616Z,26.86
2018-06-20T09:50:53.972Z,26.79
2018-06-20T09:53:22.072Z,26.75
2018-06-20T09:55:50.128Z,26.78
2018-06-20T09:58:18.164Z,26.83
2018-06-20T10:00:51.639Z,27.01
2018-06-20T10:03:25.378Z,27.10
2018-06-20T10:05:59.018Z,27.25
2018-06-20T10:08:32.560Z,27.28
2018-06-20T10:11:06.549Z,27.39
2018-06-20T10:13:49.996Z,27.49
2018-06-20T10:16:18.736Z,27.51
2018-06-20T10:18:46.792Z,27.51
2018-06-20T10:21:15.030Z,27.52
2018-06-20T10:23:44.378Z,27.58
2018-06-20T10:26:12.599Z,27.64
2018-06-20T10:28:41.123Z,27.82
2018-06-20T10:31:09.612Z,27.96
2018-06-20T10:33:37.750Z,28.11
2018-06-20T10:36:05.892Z,28.37
2018-06-20T10:38:34.051Z,28.35
2018-06-20T10:41:02.292Z,28.48
2018-06-20T10:43:30.372Z,28.50
2018-06-20T10:46:04.029Z,28.63
2018-06-20T10:48:32.111Z,28.74
2018-06-20T10:51:00.226Z,28.90
2018-06-20T10:53:28.372Z,28.98
2018-06-20T10:56:02.263Z,28.97
2018-06-20T10:58:35.814Z,28.86
2018-06-20T11:01:09.209Z,28.72
2018-06-20T11:03:42.600Z,28.75
2018-06-20T11:06:16.032Z,28.73
2018-06-20T11:08:49.988Z,28.71
2018-06-20T11:11:23.547Z,28.71
2018-06-20T11:13:51.653Z,28.79
2018-06-20T11:16:19.772Z,28.72
2018-06-20T11:18:51.645Z,28.62
2018-06-20T11:21:19.712Z,28.75
2018-06-20T11:23:47.961Z,28.79
2018-06-20T11:26:16.494Z,28.86
2018-06-20T11:28:44.560Z,28.62
2018-06-20T11:31:12.598Z,28.59
2018-06-20T11:33:40.678Z,28.58
2018-06-20T11:36:08.735Z,28.44
2018-06-20T11:38:36.767Z,28.43
2018-06-20T11:41:04.852Z,28.41
2018-06-20T11:43:32.940Z,28.44
2018-06-20T11:46:06.324Z,28.40
2018-06-20T11:48:34.391Z,28.38
2018-06-20T11:51:02.436Z,28.44
2018-06-20T11:53:30.506Z,28.55
2018-06-20T11:55:58.584Z,28.59
2018-06-20T11:58:31.961Z,28.67
2018-06-20T12:01:05.639Z,28.74
2018-06-20T12:03:39.174Z,28.92
2018-06-20T12:07:12.184Z,28.89
2018-06-20T12:09:45.567Z,28.80
2018-06-20T12:12:19.200Z,28.71
2018-06-20T12:14:52.718Z,28.64
2018-06-20T12:17:26.219Z,28.69
2018-06-20T12:19:59.755Z,28.78
2018-06-20T12:22:33.250Z,28.91
2018-06-20T12:25:06.667Z,28.94
2018-06-20T12:27:40.024Z,28.74
2018-06-20T12:30:13.471Z,28.60
2018-06-20T12:32:46.984Z,28.46
2018-06-20T12:35:20.458Z,28.53
2018-06-20T12:37:53.869Z,28.53
2018-06-20T12:40:27.069Z,28.49
2018-06-20T12:44:04.120Z,28.35
2018-06-20T12:46:38.402Z,28.25
2018-06-20T12:49:06.734Z,28.34
2018-06-20T12:51:34.780Z,28.37
2018-06-20T12:54:02.815Z,28.41
2018-06-20T12:56:30.872Z,28.50
2018-06-20T12:58:58.906Z,28.57
2018-06-20T13:01:26.944Z,28.62
2018-06-20T13:03:55.029Z,28.65
2018-06-20T13:06:23.215Z,28.67
2018-06-20T13:08:51.263Z,28.69
2018-06-20T13:11:19.469Z,28.65
2018-06-20T13:13:47.672Z,28.73
2018-06-20T13:16:15.808Z,28.64
2018-06-20T13:18:52.556Z,28.50
2018-06-20T13:21:20.644Z,28.48
2018-06-20T13:23:48.739Z,28.53
2018-06-20T13:26:16.823Z,28.64
2018-06-20T13:28:45.311Z,28.72
2018-06-20T13:31:18.838Z,28.75
2018-06-20T13:33:52.294Z,28.79
2018-06-20T13:36:25.837Z,28.86
2018-06-20T13:38:59.196Z,28.81
2018-06-20T13:41:32.731Z,28.81
2018-06-20T13:44:07.797Z,28.90
2018-06-20T13:46:41.605Z,28.96
2018-06-20T13:49:09.796Z,28.98
2018-06-20T13:51:37.953Z,28.99
2018-06-20T13:54:06.745Z,28.85
2018-06-20T13:56:35.168Z,28.76
2018-06-20T13:59:03.365Z,28.78
2018-06-20T14:01:31.903Z,28.86
2018-06-20T14:04:00.511Z,28.93
2018-06-20T14:06:28.597Z,28.94
2018-06-20T14:08:56.655Z,29.03
2018-06-20T14:11:24.765Z,29.11
2018-06-20T14:13:52.817Z,29.13
2018-06-20T14:16:20.873Z,29.26
2018-06-20T14:18:48.907Z,29.33
2018-06-20T14:21:22.315Z,29.35
2018-06-20T14:23:50.359Z,29.44
2018-06-20T14:26:18.392Z,29.43
2018-06-20T14:28:47.363Z,29.40
2018-06-20T14:31:20.880Z,29.44
2018-06-20T14:33:54.303Z,29.47
2018-06-20T14:36:27.806Z,29.43
2018-06-20T14:39:01.314Z,29.36
2018-06-20T14:41:29.456Z,29.38
2018-06-20T14:44:07.173Z,29.32
2018-06-20T14:46:35.439Z,29.17
2018-06-20T14:49:03.694Z,29.27
2018-06-20T14:51:32.109Z,29.28
2018-06-20T14:54:00.300Z,29.32
2018-06-20T14:56:28.376Z,29.38
2018-06-20T14:58:56.387Z,29.46
2018-06-20T15:01:24.450Z,29.51
2018-06-20T15:03:52.487Z,29.51
2018-06-20T15:06:20.511Z,29.58
2018-06-20T15:08:48.563Z,29.49
2018-06-20T15:11:16.620Z,29.44
2018-06-20T15:13:44.700Z,29.48
2018-06-20T15:16:18.268Z,29.28
2018-06-20T15:18:46.355Z,29.20
2018-06-20T15:21:14.440Z,29.12
2018-06-20T15:23:42.628Z,29.08
2018-06-20T15:26:16.035Z,29.08
2018-06-20T15:28:49.468Z,29.12
2018-06-20T15:31:22.889Z,29.15
2018-06-20T15:33:56.328Z,29.19
2018-06-20T15:36:29.786Z,29.25
2018-06-20T15:38:57.851Z,29.29
2018-06-20T15:41:25.999Z,29.19
2018-06-20T15:43:54.060Z,29.20
2018-06-20T15:46:22.112Z,29.24
2018-06-20T15:48:50.151Z,29.23
2018-06-20T15:51:18.220Z,29.26
2018-06-20T15:53:46.246Z,29.27
2018-06-20T15:56:14.316Z,29.14
2018-06-20T15:58:42.679Z,29.12
2018-06-20T16:01:10.804Z,29.10
2018-06-20T16:03:38.980Z,29.08
2018-06-20T16:06:07.288Z,29.01
2018-06-20T16:08:40.691Z,29.00
2018-06-20T16:11:08.820Z,29.14
2018-06-20T16:13:36.851Z,29.08
2018-06-20T16:16:04.983Z,29.03
2018-06-20T16:18:33.009Z,28.93
2018-06-20T16:21:06.488Z,28.96
2018-06-20T16:23:40.183Z,28.94
2018-06-20T16:26:13.713Z,28.91
2018-06-20T16:28:47.040Z,28.98
2018-06-20T16:31:15.100Z,28.95
2018-06-20T16:33:43.150Z,28.97
2018-06-20T16:36:11.227Z,28.86
2018-06-20T16:38:39.375Z,28.87
2018-06-20T16:41:07.435Z,28.86
2018-06-20T16:43:35.520Z,28.85
2018-06-20T16:46:03.590Z,28.79
2018-06-20T16:48:32.340Z,28.73
2018-06-20T16:51:00.612Z,28.73
2018-06-20T16:53:28.933Z,28.71
2018-06-20T16:55:56.978Z,28.73
2018-06-20T16:58:25.100Z,28.71
2018-06-20T17:00:57.481Z,28.70
2018-06-20T17:03:25.505Z,28.70
2018-06-20T17:05:53.528Z,28.70
2018-06-20T17:08:23.393Z,28.68
2018-06-20T17:10:51.410Z,28.68
2018-06-20T17:13:25.069Z,28.66
2018-06-20T17:15:58.520Z,28.64
2018-06-20T17:18:32.043Z,28.63
2018-06-20T17:21:05.497Z,28.62
2018-06-20T17:23:44.610Z,28.61
2018-06-20T17:26:12.812Z,28.59
2018-06-20T17:28:41.116Z,28.56
2018-06-20T17:31:09.280Z,28.54
2018-06-20T17:33:37.523Z,28.52
2018-06-20T17:36:05.983Z,28.49
2018-06-20T17:38:34.235Z,28.48
2018-06-20T17:41:02.755Z,28.45
2018-06-20T17:43:31.477Z,28.41
2018-06-20T17:45:59.510Z,28.37
2018-06-20T17:48:27.544Z,28.32
2018-06-20T17:50:55.659Z,28.26
2018-06-20T17:53:23.729Z,28.17
2018-06-20T17:55:51.787Z,28.16
2018-06-20T17:58:19.811Z,28.10
2018-06-20T18:00:53.260Z,28.02
2018-06-20T18:03:21.470Z,27.99
2018-06-20T18:05:55.311Z,27.93
2018-06-20T18:10:33.953Z,27.89
2018-06-20T18:13:02.981Z,27.82
2018-06-20T18:15:36.476Z,27.79
2018-06-20T18:18:04.761Z,27.76
2018-06-20T18:20:32.842Z,27.70
2018-06-20T18:23:01.151Z,27.65
2018-06-20T18:25:29.250Z,27.58
2018-06-20T18:27:57.308Z,27.56
2018-06-20T18:30:25.345Z,27.50
2018-06-20T18:32:53.367Z,27.40
2018-06-20T18:35:21.437Z,27.33
2018-06-20T18:37:49.567Z,27.33
2018-06-20T18:40:17.652Z,27.26
2018-06-20T18:42:45.720Z,27.19
2018-06-20T18:45:13.764Z,27.14
2018-06-20T18:47:47.061Z,27.08
2018-06-20T18:50:15.411Z,27.01
2018-06-20T18:52:43.449Z,26.98
2018-06-20T18:55:11.599Z,26.90
2018-06-20T18:58:44.484Z,26.80
2018-06-20T19:01:17.888Z,26.68
2018-06-20T19:03:51.377Z,26.58
2018-06-20T19:06:24.872Z,26.48
2018-06-20T19:08:55.274Z,26.39
2018-06-20T19:11:23.367Z,26.33
2018-06-20T19:13:51.503Z,26.28
2018-06-20T19:16:19.528Z,26.23
2018-06-20T19:18:47.560Z,26.13
2018-06-20T19:21:15.594Z,26.08
2018-06-20T19:23:43.646Z,26.03
2018-06-20T19:26:11.724Z,25.97
2018-06-20T19:28:39.769Z,25.90
2018-06-20T19:31:07.804Z,25.84
2018-06-20T19:33:35.982Z,25.76
2018-06-20T19:36:04.028Z,25.67
2018-06-20T19:38:32.092Z,25.57
2018-06-20T19:41:00.233Z,25.48
2018-06-20T19:43:28.277Z,25.39
2018-06-20T19:45:56.291Z,25.31
2018-06-20T19:48:24.312Z,25.23
2018-06-20T19:50:52.396Z,25.15
2018-06-20T19:53:20.454Z,25.04
2018-06-20T19:55:48.592Z,24.93
2018-06-20T19:58:17.056Z,24.85
2018-06-20T20:00:45.177Z,24.77
2018-06-20T20:03:13.221Z,24.69
2018-06-20T20:05:41.452Z,24.64
2018-06-20T20:08:09.551Z,24.57
2018-06-20T20:10:37.605Z,24.50
2018-06-20T20:13:05.746Z,24.43
2018-06-20T20:15:34.259Z,24.36
2018-06-20T20:18:03.161Z,24.29
2018-06-20T20:20:31.649Z,24.21
2018-06-20T20:22:59.803Z,24.15
2018-06-20T20:25:28.048Z,24.08
2018-06-20T20:27:56.161Z,24.00
2018-06-20T20:30:24.227Z,23.91
2018-06-20T20:32:52.303Z,23.84
2018-06-20T20:35:20.323Z,23.75
2018-06-20T20:37:48.375Z,23.66
2018-06-20T20:40:16.427Z,23.58
2018-06-20T20:42:44.567Z,23.49
2018-06-20T20:45:13.308Z,23.42
2018-06-20T20:47:41.424Z,23.35
2018-06-20T20:50:09.874Z,23.28
2018-06-20T20:52:38.684Z,23.19
2018-06-20T20:55:07.552Z,23.12
2018-06-20T20:57:36.143Z,23.04
2018-06-20T21:00:05.658Z,22.99
2018-06-20T21:02:34.135Z,22.94
2018-06-20T21:05:03.475Z,22.89
2018-06-20T21:07:31.721Z,22.83
2018-06-20T21:09:59.816Z,22.79
2018-06-20T21:12:27.892Z,22.74
2018-06-20T21:14:55.981Z,22.71
2018-06-20T21:17:24.038Z,22.66
2018-06-20T21:19:52.324Z,22.60
2018-06-20T21:22:20.736Z,22.54
2018-06-20T21:24:48.763Z,22.51
2018-06-20T21:27:17.263Z,22.44
2018-06-20T21:29:45.306Z,22.39
2018-06-20T21:32:13.585Z,22.36
2018-06-20T21:34:41.598Z,22.32
2018-06-20T21:37:09.716Z,22.29
2018-06-20T21:39:37.768Z,22.27
2018-06-20T21:42:05.983Z,22.22
2018-06-20T21:44:34.242Z,22.20
2018-06-20T21:47:02.935Z,22.17
2018-06-20T21:49:31.146Z,22.13
2018-06-20T21:51:59.220Z,22.11
2018-06-20T21:54:27.248Z,22.09
2018-06-20T21:56:55.388Z,22.07
2018-06-20T21:59:23.499Z,22.06
2018-06-20T22:01:51.591Z,22.03
2018-06-20T22:04:19.922Z,22.00
2018-06-20T22:06:47.960Z,21.98
2018-06-20T22:09:16.152Z,21.96
2018-06-20T22:11:44.444Z,21.93
2018-06-20T22:14:12.851Z,21.89
2018-06-20T22:16:41.204Z,21.85
2018-06-20T22:19:09.524Z,21.81
2018-06-20T22:21:37.828Z,21.79
2018-06-20T22:24:06.720Z,21.75
2018-06-20T22:26:35.492Z,21.73
2018-06-20T22:29:04.128Z,21.71
2018-06-20T22:31:33.050Z,21.68
2018-06-20T22:34:01.578Z,21.65
2018-06-20T22:36:29.808Z,21.62
2018-06-20T22:38:58.063Z,21.58
2018-06-20T22:41:26.123Z,21.53
2018-06-20T22:43:54.331Z,21.50
2018-06-20T22:46:22.353Z,21.44
2018-06-20T22:48:50.415Z,21.41
2018-06-20T22:51:18.591Z,21.36
2018-06-20T22:53:47.007Z,21.33
2018-06-20T22:56:15.192Z,21.29
2018-06-20T22:58:43.259Z,21.23
2018-06-20T23:01:11.304Z,21.17
2018-06-20T23:03:39.515Z,21.12
2018-06-20T23:06:07.864Z,21.07
2018-06-20T23:08:35.907Z,21.02
2018-06-20T23:11:03.952Z,20.97
2018-06-20T23:13:32.194Z,20.93
2018-06-20T23:16:00.241Z,20.87
2018-06-20T23:18:28.393Z,20.84
2018-06-20T23:20:56.627Z,20.78
2018-06-20T23:23:24.696Z,20.72
2018-06-20T23:25:52.760Z,20.68
2018-06-20T23:28:20.834Z,20.64
2018-06-20T23:30:48.852Z,20.61
2018-06-20T23:33:16.917Z,20.57
2018-06-20T23:35:45.192Z,20.55
2018-06-20T23:38:13.443Z,20.52
2018-06-20T23:40:41.747Z,20.50
2018-06-20T23:43:09.955Z,20.48
2018-06-20T23:45:38.699Z,20.47
2018-06-20T23:48:07.192Z,20.45
2018-06-20T23:50:35.411Z,20.47
2018-06-20T23:53:04.441Z,20.48
2018-06-20T23:55:33.275Z,20.51
2018-06-20T23:58:02.214Z,20.51
